sensor_id;sensor_type;location;lat;lon;timestamp;temperature;humidity
7972;DHT22;4031;49.758;6.120;2023-04-09T00:02:16;5.00;99.90
7972;DHT22;4031;49.758;6.120;2023-04-09T00:04:42;4.80;99.90
7972;DHT22;4031;49.758;6.120;2023-04-09T00:07:07;4.90;99.90
7972;DHT22;4031;49.758;6.120;2023-04-09T00:09:33;4.70;99.90
7972;DHT22;4031;49.758;6.120;2023-04-09T00:11:59;4.60;99.90
7972;DHT22;4031;49.758;6.120;2023-04-09T00:14:26;4.50;99.90
7972;DHT22;4031;49.758;6.120;2023-04-09T00:16:52;4.50;99.90
7972;DHT22;4031;49.758;6.120;2023-04-09T00:19:17;4.40;99.90
7972;DHT22;4031;49.758;6.120;2023-04-09T00:21:43;4.40;99.90
7972;DHT22;4031;49.758;6.120;2023-04-09T00:24:09;4.30;99.90
7972;DHT22;4031;49.758;6.120;2023-04-09T00:26:35;4.20;99.90
7972;DHT22;4031;49.758;6.120;2023-04-09T00:29:00;4.10;99.90
7972;DHT22;4031;49.758;6.120;2023-04-09T00:31:26;4.00;99.90
7972;DHT22;4031;49.758;6.120;2023-04-09T00:33:52;3.90;99.90
7972;DHT22;4031;49.758;6.120;2023-04-09T00:36:17;3.90;99.90
7972;DHT22;4031;49.758;6.120;2023-04-09T00:38:43;3.90;99.90
7972;DHT22;4031;49.758;6.120;2023-04-09T00:41:10;3.90;99.90
7972;DHT22;4031;49.758;6.120;2023-04-09T00:43:36;4.00;99.90
7972;DHT22;4031;49.758;6.120;2023-04-09T00:46:02;4.00;99.90
7972;DHT22;4031;49.758;6.120;2023-04-09T00:48:29;3.90;99.90
7972;DHT22;4031;49.758;6.120;2023-04-09T00:50:54;3.90;99.90
7972;DHT22;4031;49.758;6.120;2023-04-09T00:53:20;3.90;99.90
7972;DHT22;4031;49.758;6.120;2023-04-09T00:55:46;3.80;99.90
7972;DHT22;4031;49.758;6.120;2023-04-09T00:58:12;3.80;99.90
7972;DHT22;4031;49.758;6.120;2023-04-09T01:00:38;3.90;99.90
7972;DHT22;4031;49.758;6.120;2023-04-09T01:03:05;3.90;99.90
7972;DHT22;4031;49.758;6.120;2023-04-09T01:06:24;4.00;99.90
7972;DHT22;4031;49.758;6.120;2023-04-09T01:08:39;4.10;99.90
7972;DHT22;4031;49.758;6.120;2023-04-09T01:17:45;4.30;99.90
7972;DHT22;4031;49.758;6.120;2023-04-09T01:20:32;4.20;99.90
7972;DHT22;4031;49.758;6.120;2023-04-09T01:23:15;4.30;99.90
7972;DHT22;4031;49.758;6.120;2023-04-09T01:28:24;4.30;99.90
7972;DHT22;4031;49.758;6.120;2023-04-09T01:30:57;4.40;99.90
7972;DHT22;4031;49.758;6.120;2023-04-09T01:33:26;4.40;99.90
7972;DHT22;4031;49.758;6.120;2023-04-09T01:35:54;4.30;99.90
7972;DHT22;4031;49.758;6.120;2023-04-09T01:38:20;4.30;99.90
7972;DHT22;4031;49.758;6.120;2023-04-09T01:40:49;4.30;99.90
7972;DHT22;4031;49.758;6.120;2023-04-09T01:43:16;4.20;99.90
7972;DHT22;4031;49.758;6.120;2023-04-09T01:45:43;4.20;99.90
7972;DHT22;4031;49.758;6.120;2023-04-09T01:48:11;4.10;99.90
7972;DHT22;4031;49.758;6.120;2023-04-09T01:50:38;4.10;99.90
7972;DHT22;4031;49.758;6.120;2023-04-09T01:53:05;4.10;99.90
7972;DHT22;4031;49.758;6.120;2023-04-09T01:55:30;4.20;99.90
7972;DHT22;4031;49.758;6.120;2023-04-09T01:57:56;4.20;99.90
7972;DHT22;4031;49.758;6.120;2023-04-09T02:00:24;4.20;99.90
7972;DHT22;4031;49.758;6.120;2023-04-09T02:06:09;4.30;99.90
7972;DHT22;4031;49.758;6.120;2023-04-09T02:08:48;4.10;99.90
7972;DHT22;4031;49.758;6.120;2023-04-09T02:11:15;4.30;99.90
7972;DHT22;4031;49.758;6.120;2023-04-09T02:13:42;4.30;99.90
7972;DHT22;4031;49.758;6.120;2023-04-09T02:16:10;4.30;99.90
7972;DHT22;4031;49.758;6.120;2023-04-09T02:18:38;4.30;99.90
7972;DHT22;4031;49.758;6.120;2023-04-09T02:21:04;4.30;99.90
7972;DHT22;4031;49.758;6.120;2023-04-09T02:23:30;4.30;99.90
7972;DHT22;4031;49.758;6.120;2023-04-09T02:26:00;4.20;99.90
7972;DHT22;4031;49.758;6.120;2023-04-09T02:28:26;4.20;99.90
7972;DHT22;4031;49.758;6.120;2023-04-09T02:30:52;4.10;99.90
7972;DHT22;4031;49.758;6.120;2023-04-09T02:33:18;4.00;99.90
7972;DHT22;4031;49.758;6.120;2023-04-09T02:35:43;4.00;99.90
7972;DHT22;4031;49.758;6.120;2023-04-09T02:38:09;3.90;99.90
7972;DHT22;4031;49.758;6.120;2023-04-09T02:40:42;3.80;99.90
7972;DHT22;4031;49.758;6.120;2023-04-09T02:43:08;3.80;99.90
7972;DHT22;4031;49.758;6.120;2023-04-09T02:45:34;3.80;99.90
7972;DHT22;4031;49.758;6.120;2023-04-09T02:48:00;3.70;99.90
7972;DHT22;4031;49.758;6.120;2023-04-09T02:50:26;3.60;99.90
7972;DHT22;4031;49.758;6.120;2023-04-09T02:52:52;3.50;99.90
7972;DHT22;4031;49.758;6.120;2023-04-09T02:55:18;3.50;99.90
7972;DHT22;4031;49.758;6.120;2023-04-09T02:57:45;3.30;99.90
7972;DHT22;4031;49.758;6.120;2023-04-09T03:00:11;3.30;99.90
7972;DHT22;4031;49.758;6.120;2023-04-09T03:02:37;3.20;99.90
7972;DHT22;4031;49.758;6.120;2023-04-09T03:05:03;3.10;99.90
7972;DHT22;4031;49.758;6.120;2023-04-09T03:07:29;3.00;99.90
7972;DHT22;4031;49.758;6.120;2023-04-09T03:09:55;2.90;99.90
7972;DHT22;4031;49.758;6.120;2023-04-09T03:12:21;2.80;99.90
7972;DHT22;4031;49.758;6.120;2023-04-09T03:14:46;2.70;99.90
7972;DHT22;4031;49.758;6.120;2023-04-09T03:17:12;2.60;99.90
7972;DHT22;4031;49.758;6.120;2023-04-09T03:19:38;2.50;99.90
7972;DHT22;4031;49.758;6.120;2023-04-09T03:22:04;2.50;99.90
7972;DHT22;4031;49.758;6.120;2023-04-09T03:24:31;2.40;99.90
7972;DHT22;4031;49.758;6.120;2023-04-09T03:26:57;2.30;99.90
7972;DHT22;4031;49.758;6.120;2023-04-09T03:29:23;2.30;99.90
7972;DHT22;4031;49.758;6.120;2023-04-09T03:31:49;2.20;99.90
7972;DHT22;4031;49.758;6.120;2023-04-09T03:34:15;2.20;99.90
7972;DHT22;4031;49.758;6.120;2023-04-09T03:36:41;2.00;99.90
7972;DHT22;4031;49.758;6.120;2023-04-09T03:39:06;1.90;99.90
7972;DHT22;4031;49.758;6.120;2023-04-09T03:41:32;1.80;99.90
7972;DHT22;4031;49.758;6.120;2023-04-09T03:43:58;1.70;99.90
7972;DHT22;4031;49.758;6.120;2023-04-09T03:46:24;1.60;99.90
7972;DHT22;4031;49.758;6.120;2023-04-09T03:48:49;1.60;99.90
7972;DHT22;4031;49.758;6.120;2023-04-09T03:51:16;1.60;99.90
7972;DHT22;4031;49.758;6.120;2023-04-09T03:53:42;1.50;99.90
7972;DHT22;4031;49.758;6.120;2023-04-09T03:56:09;1.40;99.90
7972;DHT22;4031;49.758;6.120;2023-04-09T03:58:35;1.40;99.90
7972;DHT22;4031;49.758;6.120;2023-04-09T04:01:01;1.30;99.90
7972;DHT22;4031;49.758;6.120;2023-04-09T04:03:27;1.20;99.90
7972;DHT22;4031;49.758;6.120;2023-04-09T04:05:53;1.20;99.90
7972;DHT22;4031;49.758;6.120;2023-04-09T04:08:19;1.20;99.90
7972;DHT22;4031;49.758;6.120;2023-04-09T04:10:44;1.20;99.90
7972;DHT22;4031;49.758;6.120;2023-04-09T04:13:10;1.10;99.90
7972;DHT22;4031;49.758;6.120;2023-04-09T04:15:39;1.10;99.90
7972;DHT22;4031;49.758;6.120;2023-04-09T04:18:06;1.10;99.90
7972;DHT22;4031;49.758;6.120;2023-04-09T04:20:33;1.10;99.90
7972;DHT22;4031;49.758;6.120;2023-04-09T04:22:58;1.00;99.90
7972;DHT22;4031;49.758;6.120;2023-04-09T04:25:24;1.00;99.90
7972;DHT22;4031;49.758;6.120;2023-04-09T04:27:50;1.00;99.90
7972;DHT22;4031;49.758;6.120;2023-04-09T04:30:16;0.90;99.90
7972;DHT22;4031;49.758;6.120;2023-04-09T04:32:41;0.80;99.90
7972;DHT22;4031;49.758;6.120;2023-04-09T04:35:07;0.80;99.90
7972;DHT22;4031;49.758;6.120;2023-04-09T04:37:33;0.80;99.90
7972;DHT22;4031;49.758;6.120;2023-04-09T04:40:02;0.70;99.90
7972;DHT22;4031;49.758;6.120;2023-04-09T04:42:29;0.70;99.90
7972;DHT22;4031;49.758;6.120;2023-04-09T04:44:55;0.70;99.90
7972;DHT22;4031;49.758;6.120;2023-04-09T04:47:21;0.70;99.90
7972;DHT22;4031;49.758;6.120;2023-04-09T04:49:46;0.60;99.90
7972;DHT22;4031;49.758;6.120;2023-04-09T04:52:12;0.60;99.90
7972;DHT22;4031;49.758;6.120;2023-04-09T04:54:38;0.70;99.90
7972;DHT22;4031;49.758;6.120;2023-04-09T04:57:04;0.60;99.90
7972;DHT22;4031;49.758;6.120;2023-04-09T04:59:30;0.60;99.90
7972;DHT22;4031;49.758;6.120;2023-04-09T05:01:56;0.60;99.90
7972;DHT22;4031;49.758;6.120;2023-04-09T05:04:21;0.60;99.90
7972;DHT22;4031;49.758;6.120;2023-04-09T05:06:47;0.60;99.90
7972;DHT22;4031;49.758;6.120;2023-04-09T05:09:13;0.60;99.90
7972;DHT22;4031;49.758;6.120;2023-04-09T05:11:39;0.50;99.90
7972;DHT22;4031;49.758;6.120;2023-04-09T05:14:05;0.50;99.90
7972;DHT22;4031;49.758;6.120;2023-04-09T05:16:31;0.50;99.90
7972;DHT22;4031;49.758;6.120;2023-04-09T05:18:56;0.60;99.90
7972;DHT22;4031;49.758;6.120;2023-04-09T05:21:22;0.60;99.90
7972;DHT22;4031;49.758;6.120;2023-04-09T05:23:48;0.80;99.90
7972;DHT22;4031;49.758;6.120;2023-04-09T05:26:14;0.90;99.90
7972;DHT22;4031;49.758;6.120;2023-04-09T05:28:39;0.90;99.90
7972;DHT22;4031;49.758;6.120;2023-04-09T05:31:05;1.00;99.90
7972;DHT22;4031;49.758;6.120;2023-04-09T05:33:37;0.90;99.90
7972;DHT22;4031;49.758;6.120;2023-04-09T05:36:03;0.90;99.90
7972;DHT22;4031;49.758;6.120;2023-04-09T05:38:30;0.90;99.90
7972;DHT22;4031;49.758;6.120;2023-04-09T05:40:55;0.90;99.90
7972;DHT22;4031;49.758;6.120;2023-04-09T05:43:21;0.90;99.90
7972;DHT22;4031;49.758;6.120;2023-04-09T05:45:47;0.90;99.90
7972;DHT22;4031;49.758;6.120;2023-04-09T05:48:13;1.00;99.90
7972;DHT22;4031;49.758;6.120;2023-04-09T05:50:38;1.10;99.90
7972;DHT22;4031;49.758;6.120;2023-04-09T05:53:04;1.20;99.90
7972;DHT22;4031;49.758;6.120;2023-04-09T05:55:31;1.30;99.90
7972;DHT22;4031;49.758;6.120;2023-04-09T05:57:57;1.40;99.90
7972;DHT22;4031;49.758;6.120;2023-04-09T06:00:23;1.50;99.90
7972;DHT22;4031;49.758;6.120;2023-04-09T06:02:49;1.70;99.90
7972;DHT22;4031;49.758;6.120;2023-04-09T06:05:15;1.90;99.90
7972;DHT22;4031;49.758;6.120;2023-04-09T06:07:41;1.90;99.90
7972;DHT22;4031;49.758;6.120;2023-04-09T06:10:07;2.10;99.90
7972;DHT22;4031;49.758;6.120;2023-04-09T06:12:36;2.20;99.90
7972;DHT22;4031;49.758;6.120;2023-04-09T06:15:02;2.40;99.90
7972;DHT22;4031;49.758;6.120;2023-04-09T06:17:29;2.60;99.90
7972;DHT22;4031;49.758;6.120;2023-04-09T06:19:54;2.90;99.90
7972;DHT22;4031;49.758;6.120;2023-04-09T06:22:20;3.20;99.90
7972;DHT22;4031;49.758;6.120;2023-04-09T06:24:46;3.70;99.90
7972;DHT22;4031;49.758;6.120;2023-04-09T06:27:12;4.10;99.90
7972;DHT22;4031;49.758;6.120;2023-04-09T06:29:37;4.70;99.90
7972;DHT22;4031;49.758;6.120;2023-04-09T06:32:04;5.30;99.90
7972;DHT22;4031;49.758;6.120;2023-04-09T06:34:30;5.90;99.90
7972;DHT22;4031;49.758;6.120;2023-04-09T06:36:55;6.40;99.90
7972;DHT22;4031;49.758;6.120;2023-04-09T06:39:21;7.00;99.90
7972;DHT22;4031;49.758;6.120;2023-04-09T06:41:47;7.50;99.90
7972;DHT22;4031;49.758;6.120;2023-04-09T06:44:13;7.90;99.90
7972;DHT22;4031;49.758;6.120;2023-04-09T06:46:38;8.50;99.90
7972;DHT22;4031;49.758;6.120;2023-04-09T06:49:04;9.10;99.90
7972;DHT22;4031;49.758;6.120;2023-04-09T06:51:30;9.70;99.90
7972;DHT22;4031;49.758;6.120;2023-04-09T06:53:56;10.40;99.90
7972;DHT22;4031;49.758;6.120;2023-04-09T06:56:22;11.10;99.90
7972;DHT22;4031;49.758;6.120;2023-04-09T06:58:47;11.60;99.90
7972;DHT22;4031;49.758;6.120;2023-04-09T07:01:13;12.00;99.90
7972;DHT22;4031;49.758;6.120;2023-04-09T07:03:41;12.50;99.90
7972;DHT22;4031;49.758;6.120;2023-04-09T07:06:07;13.00;99.90
7972;DHT22;4031;49.758;6.120;2023-04-09T07:08:32;13.50;99.90
7972;DHT22;4031;49.758;6.120;2023-04-09T07:10:58;13.80;99.90
7972;DHT22;4031;49.758;6.120;2023-04-09T07:13:24;14.10;99.90
7972;DHT22;4031;49.758;6.120;2023-04-09T07:15:50;14.50;99.90
7972;DHT22;4031;49.758;6.120;2023-04-09T07:18:15;14.90;99.90
7972;DHT22;4031;49.758;6.120;2023-04-09T07:20:41;15.30;99.90
7972;DHT22;4031;49.758;6.120;2023-04-09T07:23:07;15.70;99.90
7972;DHT22;4031;49.758;6.120;2023-04-09T07:25:32;16.20;99.90
7972;DHT22;4031;49.758;6.120;2023-04-09T07:27:58;16.80;99.90
7972;DHT22;4031;49.758;6.120;2023-04-09T07:30:24;17.20;99.90
7972;DHT22;4031;49.758;6.120;2023-04-09T07:32:50;17.40;99.90
7972;DHT22;4031;49.758;6.120;2023-04-09T07:35:16;17.30;99.90
7972;DHT22;4031;49.758;6.120;2023-04-09T07:37:43;17.20;99.90
7972;DHT22;4031;49.758;6.120;2023-04-09T07:40:08;17.40;99.90
7972;DHT22;4031;49.758;6.120;2023-04-09T07:42:39;17.70;99.90
7972;DHT22;4031;49.758;6.120;2023-04-09T07:45:07;17.80;99.90
7972;DHT22;4031;49.758;6.120;2023-04-09T07:47:33;18.40;99.90
7972;DHT22;4031;49.758;6.120;2023-04-09T07:49:58;18.20;99.90
7972;DHT22;4031;49.758;6.120;2023-04-09T07:52:24;17.90;99.90
7972;DHT22;4031;49.758;6.120;2023-04-09T07:54:50;17.70;99.90
7972;DHT22;4031;49.758;6.120;2023-04-09T07:57:15;17.70;99.90
7972;DHT22;4031;49.758;6.120;2023-04-09T07:59:41;17.70;99.90
7972;DHT22;4031;49.758;6.120;2023-04-09T08:02:07;17.80;99.90
7972;DHT22;4031;49.758;6.120;2023-04-09T08:04:33;18.10;99.90
7972;DHT22;4031;49.758;6.120;2023-04-09T08:06:59;18.30;99.90
7972;DHT22;4031;49.758;6.120;2023-04-09T08:09:24;18.60;99.90
7972;DHT22;4031;49.758;6.120;2023-04-09T08:11:50;18.50;99.90
7972;DHT22;4031;49.758;6.120;2023-04-09T08:14:17;18.30;99.90
7972;DHT22;4031;49.758;6.120;2023-04-09T08:16:44;18.30;99.90
7972;DHT22;4031;49.758;6.120;2023-04-09T08:19:11;18.70;99.90
7972;DHT22;4031;49.758;6.120;2023-04-09T08:21:41;19.20;99.90
7972;DHT22;4031;49.758;6.120;2023-04-09T08:24:11;19.80;99.90
7972;DHT22;4031;49.758;6.120;2023-04-09T08:26:38;20.30;99.90
7972;DHT22;4031;49.758;6.120;2023-04-09T08:29:04;20.60;99.90
7972;DHT22;4031;49.758;6.120;2023-04-09T08:31:29;20.80;99.90
7972;DHT22;4031;49.758;6.120;2023-04-09T08:33:55;20.80;99.90
7972;DHT22;4031;49.758;6.120;2023-04-09T08:36:21;20.80;99.90
7972;DHT22;4031;49.758;6.120;2023-04-09T08:38:47;21.30;99.90
7972;DHT22;4031;49.758;6.120;2023-04-09T08:41:23;21.80;99.90
7972;DHT22;4031;49.758;6.120;2023-04-09T08:43:50;21.90;99.90
7972;DHT22;4031;49.758;6.120;2023-04-09T08:46:18;21.20;99.90
7972;DHT22;4031;49.758;6.120;2023-04-09T08:48:45;19.70;99.90
7972;DHT22;4031;49.758;6.120;2023-04-09T08:51:13;17.70;99.90
7972;DHT22;4031;49.758;6.120;2023-04-09T08:53:45;16.60;99.90
7972;DHT22;4031;49.758;6.120;2023-04-09T08:56:15;16.90;99.90
7972;DHT22;4031;49.758;6.120;2023-04-09T08:58:46;18.20;99.90
7972;DHT22;4031;49.758;6.120;2023-04-09T09:04:00;19.00;99.90
7972;DHT22;4031;49.758;6.120;2023-04-09T09:06:37;18.70;99.90
7972;DHT22;4031;49.758;6.120;2023-04-09T09:09:10;19.50;99.90
7972;DHT22;4031;49.758;6.120;2023-04-09T09:11:39;20.80;99.90
7972;DHT22;4031;49.758;6.120;2023-04-09T09:14:17;21.90;99.90
7972;DHT22;4031;49.758;6.120;2023-04-09T09:24:27;18.50;99.90
7972;DHT22;4031;49.758;6.120;2023-04-09T09:26:56;18.00;99.90
7972;DHT22;4031;49.758;6.120;2023-04-09T09:29:23;18.80;99.90
7972;DHT22;4031;49.758;6.120;2023-04-09T09:31:51;20.40;99.90
7972;DHT22;4031;49.758;6.120;2023-04-09T09:34:19;22.30;99.90
7972;DHT22;4031;49.758;6.120;2023-04-09T09:36:46;23.70;99.90
7972;DHT22;4031;49.758;6.120;2023-04-09T09:39:13;23.80;99.90
7972;DHT22;4031;49.758;6.120;2023-04-09T09:41:40;24.60;99.90
7972;DHT22;4031;49.758;6.120;2023-04-09T09:44:07;23.80;97.30
7972;DHT22;4031;49.758;6.120;2023-04-09T09:46:38;22.50;96.20
7972;DHT22;4031;49.758;6.120;2023-04-09T09:49:06;20.90;95.00
7972;DHT22;4031;49.758;6.120;2023-04-09T09:51:34;19.90;95.30
7972;DHT22;4031;49.758;6.120;2023-04-09T09:54:02;18.90;93.70
7972;DHT22;4031;49.758;6.120;2023-04-09T09:56:34;18.40;94.20
7972;DHT22;4031;49.758;6.120;2023-04-09T09:59:05;18.70;93.60
7972;DHT22;4031;49.758;6.120;2023-04-09T10:01:32;18.60;92.90
7972;DHT22;4031;49.758;6.120;2023-04-09T10:04:00;18.00;93.20
7972;DHT22;4031;49.758;6.120;2023-04-09T10:06:27;19.40;93.70
7972;DHT22;4031;49.758;6.120;2023-04-09T10:08:56;21.50;94.10
7972;DHT22;4031;49.758;6.120;2023-04-09T10:11:23;23.40;93.10
7972;DHT22;4031;49.758;6.120;2023-04-09T10:13:52;24.50;94.50
7972;DHT22;4031;49.758;6.120;2023-04-09T10:16:24;25.00;95.50
7972;DHT22;4031;49.758;6.120;2023-04-09T10:18:50;23.90;84.60
7972;DHT22;4031;49.758;6.120;2023-04-09T10:23:49;20.30;82.60
7972;DHT22;4031;49.758;6.120;2023-04-09T10:26:17;19.00;85.90
7972;DHT22;4031;49.758;6.120;2023-04-09T10:28:44;18.30;85.20
7972;DHT22;4031;49.758;6.120;2023-04-09T10:31:10;17.60;88.00
7972;DHT22;4031;49.758;6.120;2023-04-09T10:33:36;17.30;90.70
7972;DHT22;4031;49.758;6.120;2023-04-09T10:36:12;16.80;88.00
7972;DHT22;4031;49.758;6.120;2023-04-09T10:38:40;16.80;89.30
7972;DHT22;4031;49.758;6.120;2023-04-09T10:41:26;16.70;87.80
7972;DHT22;4031;49.758;6.120;2023-04-09T10:43:52;16.70;88.80
7972;DHT22;4031;49.758;6.120;2023-04-09T10:46:34;16.50;90.00
7972;DHT22;4031;49.758;6.120;2023-04-09T10:49:39;16.30;90.70
7972;DHT22;4031;49.758;6.120;2023-04-09T10:52:10;16.20;88.50
7972;DHT22;4031;49.758;6.120;2023-04-09T10:59:36;15.90;90.10
7972;DHT22;4031;49.758;6.120;2023-04-09T11:02:06;16.00;91.50
7972;DHT22;4031;49.758;6.120;2023-04-09T11:04:45;16.20;90.20
7972;DHT22;4031;49.758;6.120;2023-04-09T11:07:32;16.40;91.90
7972;DHT22;4031;49.758;6.120;2023-04-09T11:09:59;16.20;92.40
7972;DHT22;4031;49.758;6.120;2023-04-09T11:12:25;15.90;94.00
7972;DHT22;4031;49.758;6.120;2023-04-09T11:14:51;15.60;95.70
7972;DHT22;4031;49.758;6.120;2023-04-09T11:17:17;15.50;94.30
7972;DHT22;4031;49.758;6.120;2023-04-09T11:19:44;15.60;95.60
7972;DHT22;4031;49.758;6.120;2023-04-09T11:22:11;16.10;93.80
7972;DHT22;4031;49.758;6.120;2023-04-09T11:24:45;16.40;95.70
7972;DHT22;4031;49.758;6.120;2023-04-09T11:27:15;16.70;93.40
7972;DHT22;4031;49.758;6.120;2023-04-09T11:29:44;16.90;93.40
7972;DHT22;4031;49.758;6.120;2023-04-09T11:32:11;17.20;92.00
7972;DHT22;4031;49.758;6.120;2023-04-09T11:34:37;17.50;91.30
7972;DHT22;4031;49.758;6.120;2023-04-09T11:37:03;17.70;91.50
7972;DHT22;4031;49.758;6.120;2023-04-09T11:39:35;18.10;91.40
7972;DHT22;4031;49.758;6.120;2023-04-09T11:42:01;19.10;93.10
7972;DHT22;4031;49.758;6.120;2023-04-09T11:44:27;20.50;93.40
7972;DHT22;4031;49.758;6.120;2023-04-09T11:46:55;20.60;91.70
7972;DHT22;4031;49.758;6.120;2023-04-09T11:49:21;20.60;92.30
7972;DHT22;4031;49.758;6.120;2023-04-09T11:51:49;20.70;91.30
7972;DHT22;4031;49.758;6.120;2023-04-09T11:54:15;20.40;91.10
7972;DHT22;4031;49.758;6.120;2023-04-09T11:56:41;19.80;90.20
7972;DHT22;4031;49.758;6.120;2023-04-09T11:59:07;20.00;89.00
7972;DHT22;4031;49.758;6.120;2023-04-09T12:01:33;19.10;84.80
7972;DHT22;4031;49.758;6.120;2023-04-09T12:03:59;18.70;87.80
7972;DHT22;4031;49.758;6.120;2023-04-09T12:06:26;18.50;89.50
7972;DHT22;4031;49.758;6.120;2023-04-09T12:08:54;18.20;85.80
7972;DHT22;4031;49.758;6.120;2023-04-09T12:11:30;18.10;88.80
7972;DHT22;4031;49.758;6.120;2023-04-09T12:14:06;17.80;85.30
7972;DHT22;4031;49.758;6.120;2023-04-09T12:16:34;18.00;88.60
7972;DHT22;4031;49.758;6.120;2023-04-09T12:19:05;18.20;87.30
7972;DHT22;4031;49.758;6.120;2023-04-09T12:22:04;18.80;86.20
7972;DHT22;4031;49.758;6.120;2023-04-09T12:24:30;19.00;86.30
7972;DHT22;4031;49.758;6.120;2023-04-09T12:26:55;19.00;86.00
7972;DHT22;4031;49.758;6.120;2023-04-09T12:29:21;19.00;87.50
7972;DHT22;4031;49.758;6.120;2023-04-09T12:31:47;19.20;87.80
7972;DHT22;4031;49.758;6.120;2023-04-09T12:34:13;19.90;86.60
7972;DHT22;4031;49.758;6.120;2023-04-09T12:36:39;20.40;86.00
7972;DHT22;4031;49.758;6.120;2023-04-09T12:39:08;20.10;85.70
7972;DHT22;4031;49.758;6.120;2023-04-09T12:41:34;19.80;86.00
7972;DHT22;4031;49.758;6.120;2023-04-09T12:44:00;19.50;84.40
7972;DHT22;4031;49.758;6.120;2023-04-09T12:46:26;19.20;82.60
7972;DHT22;4031;49.758;6.120;2023-04-09T12:48:52;18.90;82.40
7972;DHT22;4031;49.758;6.120;2023-04-09T12:51:18;18.40;82.30
7972;DHT22;4031;49.758;6.120;2023-04-09T12:53:45;18.20;84.80
7972;DHT22;4031;49.758;6.120;2023-04-09T12:56:11;18.10;86.60
7972;DHT22;4031;49.758;6.120;2023-04-09T12:58:37;18.40;87.00
7972;DHT22;4031;49.758;6.120;2023-04-09T13:01:03;18.70;87.30
7972;DHT22;4031;49.758;6.120;2023-04-09T13:03:29;19.50;86.90
7972;DHT22;4031;49.758;6.120;2023-04-09T13:05:54;20.30;87.00
7972;DHT22;4031;49.758;6.120;2023-04-09T13:08:20;20.50;88.30
7972;DHT22;4031;49.758;6.120;2023-04-09T13:10:46;21.00;87.10
7972;DHT22;4031;49.758;6.120;2023-04-09T13:13:12;21.00;86.80
7972;DHT22;4031;49.758;6.120;2023-04-09T13:15:39;20.60;86.30
7972;DHT22;4031;49.758;6.120;2023-04-09T13:18:08;19.80;83.60
7972;DHT22;4031;49.758;6.120;2023-04-09T13:20:34;19.10;82.30
7972;DHT22;4031;49.758;6.120;2023-04-09T13:22:59;18.70;83.60
7972;DHT22;4031;49.758;6.120;2023-04-09T13:25:25;19.20;84.20
7972;DHT22;4031;49.758;6.120;2023-04-09T13:27:51;19.70;87.20
7972;DHT22;4031;49.758;6.120;2023-04-09T13:30:16;20.50;86.70
7972;DHT22;4031;49.758;6.120;2023-04-09T13:32:42;21.10;86.30
7972;DHT22;4031;49.758;6.120;2023-04-09T13:35:08;21.70;84.70
7972;DHT22;4031;49.758;6.120;2023-04-09T13:37:35;22.80;86.40
7972;DHT22;4031;49.758;6.120;2023-04-09T13:40:00;23.30;86.30
7972;DHT22;4031;49.758;6.120;2023-04-09T13:42:26;22.60;81.60
7972;DHT22;4031;49.758;6.120;2023-04-09T13:44:53;22.40;80.80
7972;DHT22;4031;49.758;6.120;2023-04-09T13:47:19;21.80;81.00
7972;DHT22;4031;49.758;6.120;2023-04-09T13:49:46;21.70;78.70
7972;DHT22;4031;49.758;6.120;2023-04-09T13:52:13;22.50;78.40
7972;DHT22;4031;49.758;6.120;2023-04-09T13:54:39;22.70;80.10
7972;DHT22;4031;49.758;6.120;2023-04-09T13:57:05;21.80;78.90
7972;DHT22;4031;49.758;6.120;2023-04-09T13:59:31;21.20;76.80
7972;DHT22;4031;49.758;6.120;2023-04-09T14:01:57;21.60;77.30
7972;DHT22;4031;49.758;6.120;2023-04-09T14:04:22;22.40;81.90
7972;DHT22;4031;49.758;6.120;2023-04-09T14:06:48;22.60;81.40
7972;DHT22;4031;49.758;6.120;2023-04-09T14:09:14;22.90;80.40
7972;DHT22;4031;49.758;6.120;2023-04-09T14:11:40;23.10;78.90
7972;DHT22;4031;49.758;6.120;2023-04-09T14:14:05;23.00;76.90
7972;DHT22;4031;49.758;6.120;2023-04-09T14:16:31;23.00;75.40
7972;DHT22;4031;49.758;6.120;2023-04-09T14:18:57;22.90;76.20
7972;DHT22;4031;49.758;6.120;2023-04-09T14:21:23;22.90;76.60
7972;DHT22;4031;49.758;6.120;2023-04-09T14:23:49;23.20;75.20
7972;DHT22;4031;49.758;6.120;2023-04-09T14:26:15;22.90;72.00
7972;DHT22;4031;49.758;6.120;2023-04-09T14:28:41;23.20;73.90
7972;DHT22;4031;49.758;6.120;2023-04-09T14:31:07;23.30;73.80
7972;DHT22;4031;49.758;6.120;2023-04-09T14:33:33;23.50;71.60
7972;DHT22;4031;49.758;6.120;2023-04-09T14:35:59;23.60;75.00
7972;DHT22;4031;49.758;6.120;2023-04-09T14:38:25;23.70;75.00
7972;DHT22;4031;49.758;6.120;2023-04-09T14:40:51;23.30;71.40
7972;DHT22;4031;49.758;6.120;2023-04-09T14:43:17;23.50;70.30
7972;DHT22;4031;49.758;6.120;2023-04-09T14:45:43;23.50;66.00
7972;DHT22;4031;49.758;6.120;2023-04-09T14:48:08;23.40;70.50
7972;DHT22;4031;49.758;6.120;2023-04-09T14:50:34;23.30;70.40
7972;DHT22;4031;49.758;6.120;2023-04-09T14:53:01;23.30;70.20
7972;DHT22;4031;49.758;6.120;2023-04-09T14:55:28;23.20;68.10
7972;DHT22;4031;49.758;6.120;2023-04-09T14:57:54;23.20;67.80
7972;DHT22;4031;49.758;6.120;2023-04-09T15:00:20;23.10;65.40
7972;DHT22;4031;49.758;6.120;2023-04-09T15:02:46;23.20;67.10
7972;DHT22;4031;49.758;6.120;2023-04-09T15:05:12;23.10;63.70
7972;DHT22;4031;49.758;6.120;2023-04-09T15:07:38;23.10;62.00
7972;DHT22;4031;49.758;6.120;2023-04-09T15:10:04;23.30;62.30
7972;DHT22;4031;49.758;6.120;2023-04-09T15:12:31;23.10;61.00
7972;DHT22;4031;49.758;6.120;2023-04-09T15:14:57;22.70;60.60
7972;DHT22;4031;49.758;6.120;2023-04-09T15:17:23;22.00;60.40
7972;DHT22;4031;49.758;6.120;2023-04-09T15:19:49;21.80;59.20
7972;DHT22;4031;49.758;6.120;2023-04-09T15:22:16;21.80;59.40
7972;DHT22;4031;49.758;6.120;2023-04-09T15:24:41;21.90;59.60
7972;DHT22;4031;49.758;6.120;2023-04-09T15:27:07;22.30;60.10
7972;DHT22;4031;49.758;6.120;2023-04-09T15:29:33;22.40;60.00
7972;DHT22;4031;49.758;6.120;2023-04-09T15:31:59;22.50;59.20
7972;DHT22;4031;49.758;6.120;2023-04-09T15:34:24;22.60;60.30
7972;DHT22;4031;49.758;6.120;2023-04-09T15:36:50;22.40;59.40
7972;DHT22;4031;49.758;6.120;2023-04-09T15:39:17;22.30;59.30
7972;DHT22;4031;49.758;6.120;2023-04-09T15:41:43;22.20;60.60
7972;DHT22;4031;49.758;6.120;2023-04-09T15:44:09;22.40;58.90
7972;DHT22;4031;49.758;6.120;2023-04-09T15:46:36;22.60;57.40
7972;DHT22;4031;49.758;6.120;2023-04-09T15:49:03;22.60;57.70
7972;DHT22;4031;49.758;6.120;2023-04-09T15:51:29;22.20;59.10
7972;DHT22;4031;49.758;6.120;2023-04-09T15:53:55;21.60;58.70
7972;DHT22;4031;49.758;6.120;2023-04-09T15:56:21;20.60;59.70
7972;DHT22;4031;49.758;6.120;2023-04-09T15:58:47;20.00;62.80
7972;DHT22;4031;49.758;6.120;2023-04-09T16:01:13;19.40;62.20
7972;DHT22;4031;49.758;6.120;2023-04-09T16:03:39;18.80;66.90
7972;DHT22;4031;49.758;6.120;2023-04-09T16:06:07;18.30;62.90
7972;DHT22;4031;49.758;6.120;2023-04-09T16:08:34;17.80;63.90
7972;DHT22;4031;49.758;6.120;2023-04-09T16:11:01;17.50;63.80
7972;DHT22;4031;49.758;6.120;2023-04-09T16:13:27;17.30;69.30
7972;DHT22;4031;49.758;6.120;2023-04-09T16:15:53;17.10;68.50
7972;DHT22;4031;49.758;6.120;2023-04-09T16:18:19;16.90;69.30
7972;DHT22;4031;49.758;6.120;2023-04-09T16:20:44;16.60;70.00
7972;DHT22;4031;49.758;6.120;2023-04-09T16:23:11;16.40;73.80
7972;DHT22;4031;49.758;6.120;2023-04-09T16:25:37;16.40;71.60
7972;DHT22;4031;49.758;6.120;2023-04-09T16:28:03;16.30;70.30
7972;DHT22;4031;49.758;6.120;2023-04-09T16:30:29;16.10;68.70
7972;DHT22;4031;49.758;6.120;2023-04-09T16:32:55;16.00;67.40
7972;DHT22;4031;49.758;6.120;2023-04-09T16:35:20;15.80;70.10
7972;DHT22;4031;49.758;6.120;2023-04-09T16:37:46;15.70;70.00